createdAt,value
2019-04-16T00:00:42.718Z,11.97
2019-04-16T00:03:31.891Z,11.67
2019-04-16T00:06:39.233Z,13.03
2019-04-16T00:09:46.738Z,12.20
2019-04-16T00:12:56.621Z,13.03
2019-04-16T00:15:27.671Z,12.40
2019-04-16T00:17:59.216Z,12.33
2019-04-16T00:20:36.880Z,12.97
2019-04-16T00:23:12.071Z,11.67
2019-04-16T00:25:43.759Z,12.10
2019-04-16T00:28:14.626Z,12.57
2019-04-16T00:30:45.439Z,12.13
2019-04-16T00:33:17.194Z,12.30
2019-04-16T00:35:48.485Z,12.13
2019-04-16T00:38:22.434Z,12.27
2019-04-16T00:40:52.670Z,11.67
2019-04-16T00:43:23.767Z,12.53
2019-04-16T00:45:54.646Z,12.40
2019-04-16T00:48:25.506Z,11.37
2019-04-16T00:50:56.519Z,12.37
2019-04-16T00:53:27.259Z,12.07
2019-04-16T00:55:58.313Z,12.40
2019-04-16T00:58:29.105Z,12.13
2019-04-16T01:01:00.269Z,12.10
2019-04-16T01:03:31.232Z,12.00
2019-04-16T01:06:07.005Z,12.03
2019-04-16T01:08:34.989Z,11.97
2019-04-16T01:11:06.863Z,12.23
2019-04-16T01:13:38.011Z,12.00
2019-04-16T01:16:09.196Z,11.30
2019-04-16T01:18:39.992Z,12.70
2019-04-16T01:21:13.774Z,12.07
2019-04-16T01:23:43.434Z,12.10
2019-04-16T01:26:15.311Z,12.90
2019-04-16T01:28:51.762Z,12.27
2019-04-16T01:31:43.520Z,12.37
2019-04-16T01:34:33.389Z,12.20
2019-04-16T01:37:11.275Z,12.33
2019-04-16T01:39:47.444Z,12.20
2019-04-16T01:42:16.844Z,12.93
2019-04-16T01:44:47.603Z,12.23
2019-04-16T01:47:18.547Z,12.57
2019-04-16T01:49:49.272Z,11.60
2019-04-16T01:52:20.148Z,12.90
2019-04-16T01:54:51.461Z,12.30
2019-04-16T01:57:23.595Z,12.30
2019-04-16T01:59:54.687Z,11.67
2019-04-16T02:02:25.567Z,12.20
2019-04-16T02:04:56.427Z,12.17
2019-04-16T02:07:28.555Z,11.93
2019-04-16T02:09:59.442Z,12.17
2019-04-16T02:12:30.323Z,12.03
2019-04-16T02:15:01.350Z,12.77
2019-04-16T02:17:32.480Z,12.20
2019-04-16T02:20:06.258Z,12.30
2019-04-16T02:22:36.108Z,12.47
2019-04-16T02:25:07.366Z,12.23
2019-04-16T02:27:38.520Z,13.03
2019-04-16T02:30:10.791Z,11.70
2019-04-16T02:32:41.575Z,12.30
2019-04-16T02:35:12.511Z,12.30
2019-04-16T02:37:43.606Z,12.30
2019-04-16T02:40:18.349Z,12.60
2019-04-16T02:42:48.568Z,12.90
2019-04-16T02:45:23.529Z,12.50
2019-04-16T02:47:52.527Z,12.13
2019-04-16T02:50:44.841Z,12.90
2019-04-16T02:53:33.455Z,12.87
2019-04-16T02:56:22.184Z,12.60
2019-04-16T02:59:09.707Z,12.40
2019-04-16T03:01:53.681Z,12.43
2019-04-16T03:04:27.802Z,12.53
2019-04-16T03:07:02.736Z,12.77
2019-04-16T03:09:31.135Z,12.93
2019-04-16T03:12:02.222Z,12.93
2019-04-16T03:14:33.054Z,12.57
2019-04-16T03:17:23.053Z,12.70
2019-04-16T03:19:54.288Z,13.00
2019-04-16T03:22:25.141Z,13.57
2019-04-16T03:24:56.157Z,13.83
2019-04-16T03:27:27.400Z,13.67
2019-04-16T03:30:03.048Z,13.07
2019-04-16T03:32:35.412Z,12.80
2019-04-16T03:35:03.553Z,13.47
2019-04-16T03:37:34.410Z,13.50
2019-04-16T03:40:16.582Z,13.80
2019-04-16T03:42:38.144Z,13.40
2019-04-16T03:45:10.336Z,12.60
2019-04-16T03:47:41.353Z,14.13
2019-04-16T03:50:12.756Z,13.07
2019-04-16T03:52:45.754Z,13.57
2019-04-16T03:55:15.919Z,14.23
2019-04-16T03:57:46.970Z,14.20
2019-04-16T04:00:18.127Z,13.57
2019-04-16T04:02:54.278Z,13.97
2019-04-16T04:05:22.649Z,14.53
2019-04-16T04:07:55.273Z,13.83
2019-04-16T04:10:30.901Z,14.50
2019-04-16T04:12:58.830Z,13.93
2019-04-16T04:15:29.838Z,14.43
2019-04-16T04:18:00.684Z,14.33
2019-04-16T04:20:31.656Z,14.47
2019-04-16T04:23:02.437Z,13.90
2019-04-16T04:25:36.257Z,14.53
2019-04-16T04:28:06.452Z,14.37
2019-04-16T04:30:37.893Z,14.57
2019-04-16T04:33:10.300Z,13.57
2019-04-16T04:35:41.080Z,14.70
2019-04-16T04:38:11.850Z,15.60
2019-04-16T04:40:44.929Z,14.37
2019-04-16T04:43:16.057Z,14.90
2019-04-16T04:45:46.947Z,14.03
2019-04-16T04:48:23.001Z,14.60
2019-04-16T04:50:50.770Z,14.27
2019-04-16T04:53:22.114Z,14.97
2019-04-16T04:55:54.468Z,14.70
2019-04-16T04:58:26.022Z,14.13
2019-04-16T05:00:57.893Z,15.00
2019-04-16T05:03:48.267Z,13.90
2019-04-16T05:06:26.832Z,14.13
2019-04-16T05:08:57.616Z,15.67
2019-04-16T05:11:27.799Z,15.20
2019-04-16T05:13:58.681Z,15.23
2019-04-16T05:16:31.565Z,14.50
2019-04-16T05:19:02.272Z,15.13
2019-04-16T05:21:33.032Z,15.23
2019-04-16T05:24:04.373Z,14.17
2019-04-16T05:26:36.585Z,14.70
2019-04-16T05:29:16.544Z,13.67
2019-04-16T05:31:44.297Z,14.13
2019-04-16T05:34:17.742Z,14.73
2019-04-16T05:36:48.181Z,14.23
2019-04-16T05:39:19.224Z,14.67
2019-04-16T05:41:50.479Z,15.03
2019-04-16T05:44:22.932Z,14.27
2019-04-16T05:46:53.689Z,14.37
2019-04-16T05:49:26.044Z,14.30
2019-04-16T05:51:57.222Z,14.50
2019-04-16T05:54:47.365Z,14.07
2019-04-16T05:57:26.209Z,14.63
2019-04-16T05:59:56.575Z,14.43
2019-04-16T06:02:52.540Z,15.60
2019-04-16T06:05:26.805Z,14.83
2019-04-16T06:08:09.037Z,14.40
2019-04-16T06:10:41.256Z,14.63
2019-04-16T06:13:24.260Z,16.03
2019-04-16T06:16:09.828Z,15.00
2019-04-16T06:18:58.567Z,15.20
2019-04-16T06:21:51.400Z,14.97
2019-04-16T06:24:28.299Z,14.07
2019-04-16T06:27:21.058Z,13.63
2019-04-16T06:30:09.817Z,13.87
2019-04-16T06:32:47.869Z,14.73
2019-04-16T06:35:49.603Z,14.87
2019-04-16T06:38:23.264Z,14.17
2019-04-16T06:41:25.124Z,13.80
2019-04-16T06:43:59.503Z,14.93
2019-04-16T06:47:05.366Z,13.73
2019-04-16T06:50:07.900Z,14.87
2019-04-16T06:52:57.652Z,15.47
2019-04-16T06:55:46.378Z,14.97
2019-04-16T06:58:19.750Z,15.23
2019-04-16T07:01:09.602Z,14.83
2019-04-16T07:03:49.580Z,14.37
2019-04-16T07:06:43.924Z,15.07
2019-04-16T07:09:56.742Z,15.30
2019-04-16T07:12:28.498Z,15.03
2019-04-16T07:14:59.289Z,16.00
2019-04-16T07:17:33.660Z,16.50
2019-04-16T07:20:05.775Z,17.13
2019-04-16T07:22:36.806Z,17.43
2019-04-16T07:25:08.214Z,18.13
2019-04-16T07:27:59.853Z,17.87
2019-04-16T07:30:39.078Z,18.90
2019-04-16T07:33:23.537Z,19.00
2019-04-16T07:36:16.485Z,17.57
2019-04-16T07:39:05.047Z,14.50
2019-04-16T07:41:52.262Z,13.83
2019-04-16T07:44:36.411Z,13.90
2019-04-16T07:47:34.825Z,13.27
2019-04-16T07:50:13.000Z,13.30
2019-04-16T07:52:58.898Z,12.70
2019-04-16T07:55:49.671Z,13.60
2019-04-16T07:58:20.478Z,13.63
2019-04-16T08:00:51.323Z,14.00
2019-04-16T08:03:26.199Z,13.57
2019-04-16T08:05:54.680Z,14.57
2019-04-16T08:08:25.757Z,13.77
2019-04-16T08:10:56.535Z,13.17
2019-04-16T08:13:33.330Z,14.37
2019-04-16T08:16:01.245Z,16.63
2019-04-16T08:18:32.570Z,17.63
2019-04-16T08:21:10.129Z,16.83
2019-04-16T08:23:41.939Z,17.30
2019-04-16T08:26:13.931Z,18.10
2019-04-16T08:28:44.762Z,17.27
2019-04-16T08:31:19.257Z,16.80
2019-04-16T08:33:50.510Z,17.03
2019-04-16T08:36:21.521Z,17.03
2019-04-16T08:38:52.298Z,18.30
2019-04-16T08:41:23.057Z,17.03
2019-04-16T08:43:53.834Z,17.00
2019-04-16T08:46:27.987Z,17.37
2019-04-16T08:48:57.633Z,16.63
2019-04-16T08:51:30.846Z,16.97
2019-04-16T08:54:01.067Z,16.73
2019-04-16T08:56:31.826Z,17.40
2019-04-16T08:59:02.854Z,16.80
2019-04-16T09:01:34.962Z,17.40
2019-04-16T09:04:05.816Z,17.47
2019-04-16T09:06:36.634Z,18.07
2019-04-16T09:09:25.702Z,17.30
2019-04-16T09:12:04.937Z,17.47
2019-04-16T09:14:37.904Z,17.17
2019-04-16T09:17:20.955Z,16.83
2019-04-16T09:20:10.971Z,18.00
2019-04-16T09:22:48.700Z,17.47
2019-04-16T09:25:29.334Z,17.07
2019-04-16T09:28:23.751Z,17.27
2019-04-16T09:30:58.799Z,17.63
2019-04-16T09:33:36.119Z,18.00
2019-04-16T09:36:16.201Z,17.80
2019-04-16T09:38:50.329Z,18.20
2019-04-16T09:41:29.740Z,17.63
2019-04-16T09:44:01.008Z,18.33
2019-04-16T09:46:51.216Z,18.97
2019-04-16T09:49:06.088Z,17.73
2019-04-16T09:51:37.665Z,18.53
2019-04-16T09:54:12.531Z,18.50
2019-04-16T09:56:41.369Z,18.17
2019-04-16T09:59:31.464Z,18.73
2019-04-16T10:02:17.596Z,18.63
2019-04-16T10:04:49.038Z,18.70
2019-04-16T10:07:20.061Z,19.93
2019-04-16T10:09:51.310Z,18.83
2019-04-16T10:12:23.617Z,19.33
2019-04-16T10:14:54.998Z,19.80
2019-04-16T10:17:25.993Z,18.67
2019-04-16T10:19:56.844Z,19.23
2019-04-16T10:22:27.606Z,20.03
2019-04-16T10:25:23.946Z,18.90
2019-04-16T10:27:58.124Z,19.57
2019-04-16T10:30:38.681Z,19.43
2019-04-16T10:33:09.793Z,19.63
2019-04-16T10:35:40.796Z,20.23
2019-04-16T10:38:38.242Z,20.17
2019-04-16T10:41:19.801Z,20.17
2019-04-16T10:43:59.538Z,19.83
2019-04-16T10:46:40.074Z,18.80
2019-04-16T10:49:16.510Z,20.53
2019-04-16T10:51:55.167Z,20.40
2019-04-16T10:54:38.257Z,20.50
2019-04-16T10:57:26.596Z,21.87
2019-04-16T11:00:25.136Z,20.93
2019-04-16T11:03:05.815Z,21.67
2019-04-16T11:05:57.076Z,21.00
2019-04-16T11:08:28.819Z,21.37
2019-04-16T11:11:00.077Z,21.47
2019-04-16T11:13:40.724Z,20.57
2019-04-16T11:16:13.579Z,20.23
2019-04-16T11:18:44.425Z,20.00
2019-04-16T11:21:15.704Z,21.27
2019-04-16T11:23:46.543Z,20.03
2019-04-16T11:26:17.544Z,20.17
2019-04-16T11:28:48.707Z,20.47
2019-04-16T11:31:21.052Z,20.80
2019-04-16T11:33:52.143Z,19.17
2019-04-16T11:36:23.025Z,20.30
2019-04-16T11:38:53.745Z,20.17
2019-04-16T11:41:24.628Z,19.03
2019-04-16T11:43:55.403Z,19.00
2019-04-16T11:46:26.158Z,18.53
2019-04-16T11:48:57.163Z,17.53
2019-04-16T11:51:28.222Z,17.53
2019-04-16T11:53:59.210Z,17.00
2019-04-16T11:56:30.062Z,16.70
2019-04-16T11:59:01.339Z,14.37
2019-04-16T12:01:51.211Z,15.17
2019-04-16T12:04:40.972Z,13.87
2019-04-16T12:07:21.411Z,11.20
2019-04-16T12:10:18.506Z,10.90
2019-04-16T12:12:56.607Z,11.70
2019-04-16T12:15:33.432Z,8.30
2019-04-16T12:18:16.422Z,7.70
2019-04-16T12:21:06.531Z,10.50
2019-04-16T12:24:11.997Z,11.33
2019-04-16T12:26:55.421Z,9.18
2019-04-16T12:29:46.272Z,9.30
2019-04-16T12:32:36.311Z,9.30
2019-04-16T12:35:24.827Z,9.73
2019-04-16T12:38:13.134Z,10.48
2019-04-16T12:40:50.103Z,11.15
2019-04-16T12:43:25.159Z,11.05
2019-04-16T12:46:11.927Z,12.20
2019-04-16T12:48:54.097Z,11.80
2019-04-16T12:51:39.604Z,12.33
2019-04-16T12:54:26.237Z,13.73
2019-04-16T12:57:28.577Z,13.60
2019-04-16T13:00:12.349Z,13.00
2019-04-16T13:03:08.720Z,11.68
2019-04-16T13:06:07.839Z,12.53
2019-04-16T13:09:10.811Z,12.73
2019-04-16T13:11:59.540Z,13.10
2019-04-16T13:14:41.064Z,12.80
2019-04-16T13:17:30.204Z,12.25
2019-04-16T13:20:22.773Z,11.85
2019-04-16T13:22:56.124Z,11.45
2019-04-16T13:25:33.336Z,10.88
2019-04-16T13:28:04.500Z,10.50
2019-04-16T13:30:35.534Z,10.90
2019-04-16T13:33:07.271Z,11.25
2019-04-16T13:35:38.377Z,11.55
2019-04-16T13:38:10.283Z,10.78
2019-04-16T13:40:41.626Z,11.38
2019-04-16T13:43:14.213Z,11.93
2019-04-16T13:45:44.999Z,10.25
2019-04-16T13:48:42.242Z,10.28
2019-04-16T13:51:18.486Z,10.03
2019-04-16T13:54:01.898Z,9.30
2019-04-16T13:56:37.161Z,10.55
2019-04-16T13:59:41.916Z,10.32
2019-04-16T14:02:27.249Z,9.88
2019-04-16T14:05:03.187Z,10.10
2019-04-16T14:07:30.975Z,10.53
2019-04-16T14:10:01.731Z,9.95
2019-04-16T14:12:41.754Z,10.35
2019-04-16T14:15:07.022Z,9.00
2019-04-16T14:17:51.889Z,9.15
2019-04-16T14:20:12.808Z,10.95
2019-04-16T14:22:43.836Z,10.50
2019-04-16T14:25:15.371Z,10.18
2019-04-16T14:27:46.395Z,9.48
2019-04-16T14:30:19.971Z,10.32
2019-04-16T14:32:50.749Z,9.80
2019-04-16T14:35:32.913Z,9.68
2019-04-16T14:37:56.901Z,10.10
2019-04-16T14:40:28.270Z,10.50
2019-04-16T14:42:59.837Z,10.35
2019-04-16T14:45:57.409Z,9.80
2019-04-16T14:48:19.737Z,11.17
2019-04-16T14:50:50.967Z,11.33
2019-04-16T14:53:45.744Z,10.33
2019-04-16T14:56:35.769Z,10.20
2019-04-16T14:59:35.308Z,9.90
2019-04-16T15:02:24.788Z,11.10
2019-04-16T15:05:15.777Z,10.43
2019-04-16T15:07:58.055Z,10.95
2019-04-16T15:10:50.930Z,10.30
2019-04-16T15:13:41.968Z,11.97
2019-04-16T15:16:30.486Z,10.63
2019-04-16T15:19:18.818Z,11.10
2019-04-16T15:22:07.013Z,11.30
2019-04-16T15:24:45.764Z,10.55
2019-04-16T15:27:41.715Z,11.00
2019-04-16T15:30:29.390Z,11.03
2019-04-16T15:33:38.909Z,10.68
2019-04-16T15:36:18.103Z,10.28
2019-04-16T15:38:59.336Z,10.78
2019-04-16T15:41:51.049Z,9.60
2019-04-16T15:44:34.914Z,10.37
2019-04-16T15:47:27.533Z,9.93
2019-04-16T15:50:06.925Z,9.20
2019-04-16T15:52:53.980Z,8.83
2019-04-16T15:55:42.450Z,9.68
2019-04-16T15:58:32.534Z,8.30
2019-04-16T16:01:20.983Z,8.48
2019-04-16T16:04:11.054Z,8.90
2019-04-16T16:06:52.112Z,9.13
2019-04-16T16:09:28.436Z,9.00
2019-04-16T16:12:11.091Z,9.08
2019-04-16T16:14:42.250Z,9.18
2019-04-16T16:17:13.324Z,9.20
2019-04-16T16:19:44.550Z,8.33
2019-04-16T16:22:15.840Z,8.40
2019-04-16T16:24:46.901Z,9.13
2019-04-16T16:27:17.691Z,9.07
2019-04-16T16:29:48.443Z,8.30
2019-04-16T16:32:19.534Z,8.87
2019-04-16T16:34:50.287Z,8.67
2019-04-16T16:37:21.306Z,9.37
2019-04-16T16:39:52.083Z,10.10
2019-04-16T16:42:22.926Z,10.40
2019-04-16T16:44:53.762Z,11.37
2019-04-16T16:47:30.386Z,11.47
2019-04-16T16:50:01.153Z,10.57
2019-04-16T16:52:42.733Z,11.03
2019-04-16T16:55:17.934Z,10.73
2019-04-16T16:58:13.327Z,10.00
2019-04-16T17:00:49.789Z,11.40
2019-04-16T17:03:28.781Z,10.83
2019-04-16T17:06:00.133Z,11.23
2019-04-16T17:08:31.137Z,10.80
2019-04-16T17:11:14.586Z,11.17
2019-04-16T17:13:34.626Z,10.70
2019-04-16T17:16:05.621Z,10.40
2019-04-16T17:18:36.648Z,10.27
2019-04-16T17:21:07.579Z,9.90
2019-04-16T17:23:38.742Z,9.93
2019-04-16T17:26:09.587Z,9.77
2019-04-16T17:28:43.369Z,9.77
2019-04-16T17:31:13.349Z,9.03
2019-04-16T17:33:44.501Z,9.30
2019-04-16T17:36:15.597Z,8.97
2019-04-16T17:38:46.606Z,9.63
2019-04-16T17:41:22.520Z,8.87
2019-04-16T17:44:15.470Z,9.20
2019-04-16T17:46:55.372Z,9.53
2019-04-16T17:49:45.152Z,9.20
2019-04-16T17:52:23.500Z,9.53
2019-04-16T17:55:17.267Z,9.77
2019-04-16T17:58:10.055Z,9.60
2019-04-16T18:01:21.000Z,10.27
2019-04-16T18:04:10.694Z,9.63
2019-04-16T18:07:04.521Z,10.63
2019-04-16T18:09:39.671Z,9.80
2019-04-16T18:12:36.469Z,10.50
2019-04-16T18:15:30.330Z,9.87
2019-04-16T18:18:15.670Z,9.10
2019-04-16T18:21:19.724Z,9.40
2019-04-16T18:24:18.324Z,8.20
2019-04-16T18:27:14.397Z,6.83
2019-04-16T18:29:54.240Z,7.00
2019-04-16T18:32:43.854Z,6.30
2019-04-16T18:35:24.171Z,6.07
2019-04-16T18:38:01.829Z,5.20
2019-04-16T18:40:41.293Z,4.97
2019-04-16T18:43:29.988Z,5.10
2019-04-16T18:46:34.733Z,9.00
2019-04-16T18:49:18.181Z,5.60
2019-04-16T18:51:49.012Z,5.67
2019-04-16T18:54:20.173Z,4.60
2019-04-16T18:56:52.321Z,4.67
2019-04-16T18:59:23.069Z,4.53
2019-04-16T19:01:58.771Z,3.73
2019-04-16T19:04:29.781Z,4.10
2019-04-16T19:07:01.139Z,3.87
2019-04-16T19:09:32.226Z,3.97
2019-04-16T19:12:03.372Z,3.93
2019-04-16T19:14:36.450Z,3.83
2019-04-16T19:17:06.744Z,3.90
2019-04-16T19:19:37.875Z,3.90
2019-04-16T19:22:08.803Z,3.70
2019-04-16T19:24:40.103Z,3.80
2019-04-16T19:27:11.347Z,3.70
2019-04-16T19:29:45.304Z,4.10
2019-04-16T19:32:15.308Z,3.90
2019-04-16T19:34:46.188Z,3.40
2019-04-16T19:37:17.202Z,3.60
2019-04-16T19:39:48.188Z,3.77
2019-04-16T19:42:19.356Z,3.73
2019-04-16T19:44:50.211Z,3.57
2019-04-16T19:47:23.358Z,4.07
2019-04-16T19:49:53.498Z,4.33
2019-04-16T19:52:24.624Z,4.50
2019-04-16T19:54:55.463Z,4.03
2019-04-16T19:57:26.576Z,4.10
2019-04-16T19:59:57.839Z,3.93
2019-04-16T20:02:33.060Z,4.10
2019-04-16T20:05:01.657Z,4.30
2019-04-16T20:07:33.670Z,4.13
2019-04-16T20:10:05.093Z,4.30
2019-04-16T20:12:37.249Z,4.13
2019-04-16T20:15:09.667Z,4.10
2019-04-16T20:17:40.573Z,3.47
2019-04-16T20:20:11.528Z,3.60
2019-04-16T20:22:42.615Z,3.60
2019-04-16T20:25:13.703Z,3.63
2019-04-16T20:27:44.565Z,3.87
2019-04-16T20:30:15.649Z,3.87
2019-04-16T20:32:46.519Z,3.60
2019-04-16T20:35:18.862Z,3.50
2019-04-16T20:37:53.400Z,3.40
2019-04-16T20:40:23.819Z,3.90
2019-04-16T20:42:54.629Z,3.57
2019-04-16T20:45:25.399Z,3.80
2019-04-16T20:47:56.268Z,3.60
2019-04-16T20:50:27.051Z,3.43
2019-04-16T20:52:58.115Z,3.67
2019-04-16T20:55:28.890Z,3.60
2019-04-16T20:58:00.444Z,3.50
2019-04-16T21:00:33.203Z,3.70
2019-04-16T21:03:04.826Z,3.70
2019-04-16T21:05:36.697Z,3.87
2019-04-16T21:08:08.459Z,3.87
2019-04-16T21:10:39.472Z,3.70
2019-04-16T21:13:10.248Z,3.73
2019-04-16T21:15:41.427Z,4.33
2019-04-16T21:18:12.332Z,4.10
2019-04-16T21:20:43.347Z,4.30
2019-04-16T21:23:14.686Z,3.70
2019-04-16T21:25:46.662Z,4.30
2019-04-16T21:28:42.696Z,4.00
2019-04-16T21:31:18.738Z,4.03
2019-04-16T21:34:14.780Z,4.20
2019-04-16T21:36:53.323Z,4.40
2019-04-16T21:39:28.877Z,4.93
2019-04-16T21:42:02.584Z,5.00
2019-04-16T21:44:32.859Z,4.90
2019-04-16T21:47:03.849Z,5.10
2019-04-16T21:49:38.853Z,4.80
2019-04-16T21:52:07.985Z,5.20
2019-04-16T21:54:39.505Z,5.23
2019-04-16T21:57:13.293Z,5.97
2019-04-16T21:59:42.791Z,5.63
2019-04-16T22:02:20.964Z,5.60
2019-04-16T22:04:51.843Z,5.67
2019-04-16T22:07:24.631Z,6.47
2019-04-16T22:09:56.353Z,6.43
2019-04-16T22:12:28.347Z,5.97
2019-04-16T22:14:59.124Z,6.03
2019-04-16T22:17:35.442Z,6.03
2019-04-16T22:20:04.372Z,6.03
2019-04-16T22:22:35.674Z,5.60
2019-04-16T22:25:06.557Z,5.60
2019-04-16T22:27:39.654Z,5.37
2019-04-16T22:30:10.576Z,5.13
2019-04-16T22:32:41.729Z,5.37
2019-04-16T22:35:12.576Z,5.53
2019-04-16T22:37:43.585Z,5.70
2019-04-16T22:40:36.691Z,6.20
2019-04-16T22:43:32.939Z,5.70
2019-04-16T22:46:11.660Z,5.97
2019-04-16T22:48:54.496Z,6.30
2019-04-16T22:51:27.078Z,6.57
2019-04-16T22:53:57.920Z,6.50
2019-04-16T22:56:45.924Z,5.90
2019-04-16T22:59:16.955Z,6.00
2019-04-16T23:01:48.395Z,6.20
2019-04-16T23:04:19.460Z,6.23
2019-04-16T23:06:50.192Z,6.37
2019-04-16T23:09:22.235Z,5.93
2019-04-16T23:11:55.886Z,5.90
2019-04-16T23:14:25.935Z,5.50
2019-04-16T23:16:57.046Z,5.77
2019-04-16T23:19:28.082Z,5.80
2019-04-16T23:21:59.114Z,6.20
2019-04-16T23:24:30.099Z,6.10
2019-04-16T23:27:04.123Z,5.70
2019-04-16T23:29:33.658Z,6.73
2019-04-16T23:32:04.543Z,6.23
2019-04-16T23:34:37.934Z,6.23
2019-04-16T23:37:08.725Z,5.60
2019-04-16T23:39:39.821Z,6.17
2019-04-16T23:42:10.826Z,5.90
2019-04-16T23:45:04.032Z,6.50
2019-04-16T23:47:57.471Z,6.57
2019-04-16T23:50:44.848Z,6.20
2019-04-16T23:53:15.526Z,5.77
2019-04-16T23:56:05.590Z,5.83
2019-04-16T23:58:52.166Z,5.80
